Terminal Aerodrome Forecast
Issued by NWS Louisville, KY

Home | Current Version | Previous Version | Text Only | Print | Product List | Glossary On
Versions: 1 2 3 4 5 6 7 8 9 10 11 12 13 14 15 16 17 18 19 20
385
FTUS43 KLMK 201731
TAFBWG
TAF
KBWG 201731Z 2018/2118 VRB05KT P6SM VCTS SCT040CB BKN200
     FM202200 00000KT P6SM SCT120 SCT250
     FM210900 00000KT 5SM BR SCT250
     FM211300 VRB04KT P6SM SCT040 SCT250=

USA.gov is the U.S. government's official web portal to all federal, state and local government web resources and services.